sensor_id;sensor_type;location;lat;lon;timestamp;pressure;altitude;pressure_sealevel;temperature;humidity
46448;BME280;32145;50.390;30.778;2022-08-19T00:00:58;99673.38;;;20.29;65.67
46448;BME280;32145;50.390;30.778;2022-08-19T00:03:43;99675.41;;;20.23;65.82
46448;BME280;32145;50.390;30.778;2022-08-19T00:06:27;99683.16;;;20.21;65.89
46448;BME280;32145;50.390;30.778;2022-08-19T00:09:14;99693.34;;;20.20;65.89
46448;BME280;32145;50.390;30.778;2022-08-19T00:11:58;99686.00;;;20.16;66.05
46448;BME280;32145;50.390;30.778;2022-08-19T00:14:44;99684.69;;;20.13;66.13
46448;BME280;32145;50.390;30.778;2022-08-19T00:17:28;99688.03;;;20.10;66.27
46448;BME280;32145;50.390;30.778;2022-08-19T00:20:15;99687.53;;;20.08;66.47
46448;BME280;32145;50.390;30.778;2022-08-19T00:23:00;99690.34;;;20.03;66.40
46448;BME280;32145;50.390;30.778;2022-08-19T00:25:44;99689.84;;;20.01;66.60
46448;BME280;32145;50.390;30.778;2022-08-19T00:28:29;99685.75;;;19.98;66.63
46448;BME280;32145;50.390;30.778;2022-08-19T00:31:14;99690.41;;;19.98;66.68
46448;BME280;32145;50.390;30.778;2022-08-19T00:33:59;99689.38;;;19.93;66.74
46448;BME280;32145;50.390;30.778;2022-08-19T00:36:44;99688.34;;;19.89;66.90
46448;BME280;32145;50.390;30.778;2022-08-19T00:39:28;99681.81;;;19.85;67.01
46448;BME280;32145;50.390;30.778;2022-08-19T00:42:12;99687.94;;;19.82;66.94
46448;BME280;32145;50.390;30.778;2022-08-19T00:44:56;99684.16;;;19.78;67.13
46448;BME280;32145;50.390;30.778;2022-08-19T00:47:42;99688.31;;;19.75;67.47
46448;BME280;32145;50.390;30.778;2022-08-19T00:50:26;99690.34;;;19.69;67.41
46448;BME280;32145;50.390;30.778;2022-08-19T00:53:12;99689.00;;;19.67;67.65
46448;BME280;32145;50.390;30.778;2022-08-19T00:55:59;99681.03;;;19.65;67.74
46448;BME280;32145;50.390;30.778;2022-08-19T00:58:44;99684.38;;;19.62;67.86
46448;BME280;32145;50.390;30.778;2022-08-19T01:01:28;99693.22;;;19.59;67.94
46448;BME280;32145;50.390;30.778;2022-08-19T01:04:13;99692.72;;;19.57;68.14
46448;BME280;32145;50.390;30.778;2022-08-19T01:06:58;99686.19;;;19.53;68.16
46448;BME280;32145;50.390;30.778;2022-08-19T01:09:42;99686.50;;;19.51;68.40
46448;BME280;32145;50.390;30.778;2022-08-19T01:12:27;99691.75;;;19.48;68.51
46448;BME280;32145;50.390;30.778;2022-08-19T01:15:14;99693.69;;;19.47;68.54
46448;BME280;32145;50.390;30.778;2022-08-19T01:18:02;99699.78;;;19.44;68.71
46448;BME280;32145;50.390;30.778;2022-08-19T01:20:50;99701.19;;;19.41;68.74
46448;BME280;32145;50.390;30.778;2022-08-19T01:23:36;99697.41;;;19.37;69.01
46448;BME280;32145;50.390;30.778;2022-08-19T01:26:23;99694.44;;;19.34;68.99
46448;BME280;32145;50.390;30.778;2022-08-19T01:29:08;99697.50;;;19.32;69.18
46448;BME280;32145;50.390;30.778;2022-08-19T01:31:53;99690.34;;;19.31;69.12
46448;BME280;32145;50.390;30.778;2022-08-19T01:34:37;99695.34;;;19.29;69.46
46448;BME280;32145;50.390;30.778;2022-08-19T01:37:21;99683.81;;;19.27;69.20
46448;BME280;32145;50.390;30.778;2022-08-19T01:40:08;99685.22;;;19.24;69.55
46448;BME280;32145;50.390;30.778;2022-08-19T01:42:53;99681.16;;;19.22;69.55
46448;BME280;32145;50.390;30.778;2022-08-19T01:45:37;99677.88;;;19.19;69.65
46448;BME280;32145;50.390;30.778;2022-08-19T01:48:20;99673.00;;;19.16;69.70
46448;BME280;32145;50.390;30.778;2022-08-19T01:51:05;99678.25;;;19.13;69.52
46448;BME280;32145;50.390;30.778;2022-08-19T01:53:50;99681.56;;;19.10;69.79
46448;BME280;32145;50.390;30.778;2022-08-19T01:56:36;99678.63;;;19.06;69.95
46448;BME280;32145;50.390;30.778;2022-08-19T01:59:21;99662.69;;;19.03;69.98
46448;BME280;32145;50.390;30.778;2022-08-19T02:02:07;99673.16;;;19.01;70.09
46448;BME280;32145;50.390;30.778;2022-08-19T02:04:51;99678.13;;;18.99;70.10
46448;BME280;32145;50.390;30.778;2022-08-19T02:07:36;99678.72;;;18.96;70.12
46448;BME280;32145;50.390;30.778;2022-08-19T02:10:21;99677.38;;;18.93;70.51
46448;BME280;32145;50.390;30.778;2022-08-19T02:13:07;99682.06;;;18.92;70.44
46448;BME280;32145;50.390;30.778;2022-08-19T02:15:51;99678.28;;;18.88;70.42
46448;BME280;32145;50.390;30.778;2022-08-19T02:18:35;99672.78;;;18.88;70.41
46448;BME280;32145;50.390;30.778;2022-08-19T02:21:21;99678.03;;;18.85;70.55
46448;BME280;32145;50.390;30.778;2022-08-19T02:24:06;99678.31;;;18.83;70.66
46448;BME280;32145;50.390;30.778;2022-08-19T02:26:50;99675.06;;;18.81;70.66
46448;BME280;32145;50.390;30.778;2022-08-19T02:29:36;99665.78;;;18.77;70.76
46448;BME280;32145;50.390;30.778;2022-08-19T02:32:19;99671.28;;;18.77;70.72
46448;BME280;32145;50.390;30.778;2022-08-19T02:35:04;99676.22;;;18.75;70.88
46448;BME280;32145;50.390;30.778;2022-08-19T02:37:49;99674.06;;;18.72;70.85
46448;BME280;32145;50.390;30.778;2022-08-19T02:40:33;99673.56;;;18.70;70.80
46448;BME280;32145;50.390;30.778;2022-08-19T02:43:18;99681.25;;;18.67;70.98
46448;BME280;32145;50.390;30.778;2022-08-19T02:46:13;99681.53;;;18.66;71.15
46448;BME280;32145;50.390;30.778;2022-08-19T02:49:00;99681.31;;;18.62;71.05
46448;BME280;32145;50.390;30.778;2022-08-19T02:51:45;99680.50;;;18.62;71.09
46448;BME280;32145;50.390;30.778;2022-08-19T02:54:30;99678.56;;;18.62;70.99
46448;BME280;32145;50.390;30.778;2022-08-19T02:57:14;99684.66;;;18.59;71.12
46448;BME280;32145;50.390;30.778;2022-08-19T02:59:58;99685.75;;;18.58;71.17
46448;BME280;32145;50.390;30.778;2022-08-19T03:02:44;99681.09;;;18.59;71.12
46448;BME280;32145;50.390;30.778;2022-08-19T03:05:28;99683.31;;;18.57;71.15
46448;BME280;32145;50.390;30.778;2022-08-19T03:08:12;99685.53;;;18.54;71.11
46448;BME280;32145;50.390;30.778;2022-08-19T03:10:57;99677.59;;;18.53;71.24
46448;BME280;32145;50.390;30.778;2022-08-19T03:13:40;99674.84;;;18.53;71.22
46448;BME280;32145;50.390;30.778;2022-08-19T03:16:27;99675.94;;;18.52;71.28
46448;BME280;32145;50.390;30.778;2022-08-19T03:19:15;99669.88;;;18.55;71.25
46448;BME280;32145;50.390;30.778;2022-08-19T03:22:00;99666.63;;;18.53;71.22
46448;BME280;32145;50.390;30.778;2022-08-19T03:24:44;99673.72;;;18.54;71.11
46448;BME280;32145;50.390;30.778;2022-08-19T03:27:28;99680.84;;;18.55;71.21
46448;BME280;32145;50.390;30.778;2022-08-19T03:30:13;99692.09;;;18.59;71.13
46448;BME280;32145;50.390;30.778;2022-08-19T03:32:57;99693.13;;;18.63;71.04
46448;BME280;32145;50.390;30.778;2022-08-19T03:35:42;99708.19;;;18.65;71.07
46448;BME280;32145;50.390;30.778;2022-08-19T03:38:26;99709.25;;;18.70;70.66
46448;BME280;32145;50.390;30.778;2022-08-19T03:41:12;99706.44;;;18.75;70.54
46448;BME280;32145;50.390;30.778;2022-08-19T03:43:57;99706.06;;;18.81;70.39
46448;BME280;32145;50.390;30.778;2022-08-19T03:46:42;99703.22;;;18.92;70.17
46448;BME280;32145;50.390;30.778;2022-08-19T03:49:28;99713.19;;;19.07;70.04
46448;BME280;32145;50.390;30.778;2022-08-19T03:52:14;99719.69;;;19.36;69.58
46448;BME280;32145;50.390;30.778;2022-08-19T03:54:57;99723.31;;;19.69;68.92
46448;BME280;32145;50.390;30.778;2022-08-19T03:57:41;99735.00;;;20.00;67.78
46448;BME280;32145;50.390;30.778;2022-08-19T04:00:25;99734.34;;;20.22;67.12
46448;BME280;32145;50.390;30.778;2022-08-19T04:03:09;99744.16;;;20.42;66.20
46448;BME280;32145;50.390;30.778;2022-08-19T04:05:53;99752.97;;;20.58;65.50
46448;BME280;32145;50.390;30.778;2022-08-19T04:08:39;99753.69;;;20.64;64.72
46448;BME280;32145;50.390;30.778;2022-08-19T04:11:25;99756.00;;;20.57;64.47
46448;BME280;32145;50.390;30.778;2022-08-19T04:14:11;99750.59;;;20.38;64.86
46448;BME280;32145;50.390;30.778;2022-08-19T04:16:57;99751.34;;;20.24;65.16
46448;BME280;32145;50.390;30.778;2022-08-19T04:19:41;99752.34;;;20.14;65.45
46448;BME280;32145;50.390;30.778;2022-08-19T04:22:25;99745.00;;;20.09;65.38
46448;BME280;32145;50.390;30.778;2022-08-19T04:25:11;99750.53;;;20.09;65.40
46448;BME280;32145;50.390;30.778;2022-08-19T04:27:55;99745.44;;;19.98;65.61
46448;BME280;32145;50.390;30.778;2022-08-19T04:30:41;99754.28;;;19.94;65.72
46448;BME280;32145;50.390;30.778;2022-08-19T04:33:26;99753.25;;;19.90;65.82
46448;BME280;32145;50.390;30.778;2022-08-19T04:36:16;99752.13;;;19.91;66.08
46448;BME280;32145;50.390;30.778;2022-08-19T04:39:03;99746.94;;;19.90;66.07
46448;BME280;32145;50.390;30.778;2022-08-19T04:41:49;99748.50;;;19.96;66.26
46448;BME280;32145;50.390;30.778;2022-08-19T04:44:35;99750.94;;;19.98;65.99
46448;BME280;32145;50.390;30.778;2022-08-19T04:47:19;99750.09;;;20.02;65.89
46448;BME280;32145;50.390;30.778;2022-08-19T04:50:04;99751.13;;;20.06;66.01
46448;BME280;32145;50.390;30.778;2022-08-19T04:52:50;99752.44;;;20.09;65.83
46448;BME280;32145;50.390;30.778;2022-08-19T04:55:38;99747.13;;;20.13;65.53
46448;BME280;32145;50.390;30.778;2022-08-19T04:58:25;99743.69;;;20.21;65.58
46448;BME280;32145;50.390;30.778;2022-08-19T05:01:12;99749.94;;;20.27;65.53
46448;BME280;32145;50.390;30.778;2022-08-19T05:03:57;99752.91;;;20.30;65.26
46448;BME280;32145;50.390;30.778;2022-08-19T05:06:42;99757.50;;;20.35;65.14
46448;BME280;32145;50.390;30.778;2022-08-19T05:09:26;99756.09;;;20.38;65.17
46448;BME280;32145;50.390;30.778;2022-08-19T05:12:10;99753.34;;;20.38;65.00
46448;BME280;32145;50.390;30.778;2022-08-19T05:14:56;99766.16;;;20.42;65.04
46448;BME280;32145;50.390;30.778;2022-08-19T05:17:40;99768.31;;;20.45;64.80
46448;BME280;32145;50.390;30.778;2022-08-19T05:20:24;99762.81;;;20.45;64.87
46448;BME280;32145;50.390;30.778;2022-08-19T05:23:10;99771.50;;;20.53;64.79
46448;BME280;32145;50.390;30.778;2022-08-19T05:25:54;99762.34;;;20.57;64.68
46448;BME280;32145;50.390;30.778;2022-08-19T05:28:38;99755.81;;;20.67;64.67
46448;BME280;32145;50.390;30.778;2022-08-19T05:31:23;99759.50;;;20.77;64.40
46448;BME280;32145;50.390;30.778;2022-08-19T05:34:08;99776.22;;;20.80;63.92
46448;BME280;32145;50.390;30.778;2022-08-19T05:36:54;99774.78;;;20.83;63.86
46448;BME280;32145;50.390;30.778;2022-08-19T05:39:39;99773.59;;;20.89;63.85
46448;BME280;32145;50.390;30.778;2022-08-19T05:42:23;99775.75;;;20.92;63.83
46448;BME280;32145;50.390;30.778;2022-08-19T05:45:08;99782.19;;;21.02;63.56
46448;BME280;32145;50.390;30.778;2022-08-19T05:47:54;99788.09;;;21.09;63.63
46448;BME280;32145;50.390;30.778;2022-08-19T05:50:38;99783.09;;;21.11;63.48
46448;BME280;32145;50.390;30.778;2022-08-19T05:53:23;99779.72;;;21.14;63.31
46448;BME280;32145;50.390;30.778;2022-08-19T05:56:09;99776.75;;;21.24;63.21
46448;BME280;32145;50.390;30.778;2022-08-19T05:58:53;99772.13;;;21.34;63.07
46448;BME280;32145;50.390;30.778;2022-08-19T06:01:39;99770.69;;;21.36;62.84
46448;BME280;32145;50.390;30.778;2022-08-19T06:04:24;99773.97;;;21.38;62.73
46448;BME280;32145;50.390;30.778;2022-08-19T06:07:09;99778.06;;;21.41;62.74
46448;BME280;32145;50.390;30.778;2022-08-19T06:09:53;99788.66;;;21.48;62.61
46448;BME280;32145;50.390;30.778;2022-08-19T06:12:37;99786.59;;;21.54;62.49
46448;BME280;32145;50.390;30.778;2022-08-19T06:15:22;99791.69;;;21.60;62.38
46448;BME280;32145;50.390;30.778;2022-08-19T06:18:06;99796.16;;;21.70;62.30
46448;BME280;32145;50.390;30.778;2022-08-19T06:20:51;99799.25;;;21.83;62.07
46448;BME280;32145;50.390;30.778;2022-08-19T06:23:35;99799.59;;;21.90;61.65
46448;BME280;32145;50.390;30.778;2022-08-19T06:26:20;99802.19;;;21.86;61.60
46448;BME280;32145;50.390;30.778;2022-08-19T06:29:06;99790.84;;;21.88;61.71
46448;BME280;32145;50.390;30.778;2022-08-19T06:31:53;99778.72;;;21.98;61.60
46448;BME280;32145;50.390;30.778;2022-08-19T06:34:38;99778.81;;;22.07;61.34
46448;BME280;32145;50.390;30.778;2022-08-19T06:37:23;99781.91;;;22.14;61.31
46448;BME280;32145;50.390;30.778;2022-08-19T06:40:08;99785.56;;;22.23;61.23
46448;BME280;32145;50.390;30.778;2022-08-19T06:42:52;99772.63;;;22.33;60.97
46448;BME280;32145;50.390;30.778;2022-08-19T06:45:36;99775.91;;;22.35;60.75
46448;BME280;32145;50.390;30.778;2022-08-19T06:48:21;99774.63;;;22.41;60.82
46448;BME280;32145;50.390;30.778;2022-08-19T06:51:05;99784.56;;;22.42;60.40
46448;BME280;32145;50.390;30.778;2022-08-19T06:53:52;99781.97;;;22.46;60.39
46448;BME280;32145;50.390;30.778;2022-08-19T06:56:37;99782.13;;;22.49;60.25
46448;BME280;32145;50.390;30.778;2022-08-19T06:59:24;99779.06;;;22.51;60.04
46448;BME280;32145;50.390;30.778;2022-08-19T07:02:08;99787.75;;;22.58;59.94
46448;BME280;32145;50.390;30.778;2022-08-19T07:04:53;99787.78;;;22.67;59.98
46448;BME280;32145;50.390;30.778;2022-08-19T07:07:37;99788.16;;;22.83;59.89
46448;BME280;32145;50.390;30.778;2022-08-19T07:10:22;99790.97;;;22.92;59.31
46448;BME280;32145;50.390;30.778;2022-08-19T07:13:07;99790.03;;;22.97;59.38
46448;BME280;32145;50.390;30.778;2022-08-19T07:15:51;99792.47;;;22.98;59.12
46448;BME280;32145;50.390;30.778;2022-08-19T07:18:35;99795.44;;;23.11;59.16
46448;BME280;32145;50.390;30.778;2022-08-19T07:21:22;99798.88;;;23.25;58.81
46448;BME280;32145;50.390;30.778;2022-08-19T07:24:07;99794.16;;;23.26;58.05
46448;BME280;32145;50.390;30.778;2022-08-19T07:26:54;99797.75;;;23.26;58.81
46448;BME280;32145;50.390;30.778;2022-08-19T07:29:38;99800.06;;;23.33;58.69
46448;BME280;32145;50.390;30.778;2022-08-19T07:32:22;99805.94;;;23.49;58.75
46448;BME280;32145;50.390;30.778;2022-08-19T07:35:07;99803.38;;;23.62;58.27
46448;BME280;32145;50.390;30.778;2022-08-19T07:37:52;99806.47;;;23.60;57.72
46448;BME280;32145;50.390;30.778;2022-08-19T07:40:36;99801.09;;;23.64;57.70
46448;BME280;32145;50.390;30.778;2022-08-19T07:43:21;99812.66;;;23.75;57.77
46448;BME280;32145;50.390;30.778;2022-08-19T07:46:06;99794.44;;;23.83;57.45
46448;BME280;32145;50.390;30.778;2022-08-19T07:48:51;99789.22;;;23.81;57.47
46448;BME280;32145;50.390;30.778;2022-08-19T07:51:35;99783.53;;;23.77;57.46
46448;BME280;32145;50.390;30.778;2022-08-19T07:54:20;99795.59;;;23.81;57.48
46448;BME280;32145;50.390;30.778;2022-08-19T07:57:06;99795.88;;;23.89;57.46
46448;BME280;32145;50.390;30.778;2022-08-19T07:59:52;99803.22;;;23.93;57.04
46448;BME280;32145;50.390;30.778;2022-08-19T08:02:36;99802.06;;;24.03;57.35
46448;BME280;32145;50.390;30.778;2022-08-19T08:05:20;99800.00;;;24.18;57.48
46448;BME280;32145;50.390;30.778;2022-08-19T08:08:03;99805.34;;;24.23;56.59
46448;BME280;32145;50.390;30.778;2022-08-19T08:10:47;99810.56;;;24.33;56.31
46448;BME280;32145;50.390;30.778;2022-08-19T08:13:33;99804.19;;;24.42;56.07
46448;BME280;32145;50.390;30.778;2022-08-19T08:16:19;99813.28;;;24.42;55.78
46448;BME280;32145;50.390;30.778;2022-08-19T08:19:04;99812.50;;;24.42;55.72
46448;BME280;32145;50.390;30.778;2022-08-19T08:21:48;99811.00;;;24.44;56.21
46448;BME280;32145;50.390;30.778;2022-08-19T08:24:33;99805.75;;;24.61;56.01
46448;BME280;32145;50.390;30.778;2022-08-19T08:27:17;99813.41;;;24.64;55.64
46448;BME280;32145;50.390;30.778;2022-08-19T08:30:02;99801.84;;;24.62;55.38
46448;BME280;32145;50.390;30.778;2022-08-19T08:32:48;99803.13;;;24.73;55.70
46448;BME280;32145;50.390;30.778;2022-08-19T08:35:33;99807.31;;;24.88;55.71
46448;BME280;32145;50.390;30.778;2022-08-19T08:38:16;99812.31;;;25.04;55.43
46448;BME280;32145;50.390;30.778;2022-08-19T08:41:05;99831.50;;;25.18;55.00
46448;BME280;32145;50.390;30.778;2022-08-19T08:43:52;99830.44;;;25.31;54.64
46448;BME280;32145;50.390;30.778;2022-08-19T08:46:39;99816.22;;;25.33;54.07
46448;BME280;32145;50.390;30.778;2022-08-19T08:49:33;99829.09;;;25.38;53.78
46448;BME280;32145;50.390;30.778;2022-08-19T08:52:25;99828.75;;;25.39;54.05
46448;BME280;32145;50.390;30.778;2022-08-19T08:55:13;99830.50;;;25.44;54.05
46448;BME280;32145;50.390;30.778;2022-08-19T08:58:01;99827.56;;;25.49;53.82
46448;BME280;32145;50.390;30.778;2022-08-19T09:00:47;99829.88;;;25.38;54.00
46448;BME280;32145;50.390;30.778;2022-08-19T09:03:34;99824.50;;;25.42;53.76
46448;BME280;32145;50.390;30.778;2022-08-19T09:06:29;99826.53;;;25.54;53.45
46448;BME280;32145;50.390;30.778;2022-08-19T09:09:18;99834.16;;;25.66;53.48
46448;BME280;32145;50.390;30.778;2022-08-19T09:12:08;99830.56;;;25.65;53.16
46448;BME280;32145;50.390;30.778;2022-08-19T09:14:57;99826.19;;;25.55;53.05
46448;BME280;32145;50.390;30.778;2022-08-19T09:17:44;99823.63;;;25.59;53.42
46448;BME280;32145;50.390;30.778;2022-08-19T09:20:31;99820.22;;;25.96;54.07
46448;BME280;32145;50.390;30.778;2022-08-19T09:23:17;99822.13;;;26.04;52.97
46448;BME280;32145;50.390;30.778;2022-08-19T09:26:07;99826.66;;;25.87;52.71
46448;BME280;32145;50.390;30.778;2022-08-19T09:28:52;99827.19;;;25.81;53.06
46448;BME280;32145;50.390;30.778;2022-08-19T09:31:37;99825.78;;;25.74;53.35
46448;BME280;32145;50.390;30.778;2022-08-19T09:34:22;99831.47;;;25.78;53.68
46448;BME280;32145;50.390;30.778;2022-08-19T09:37:05;99829.97;;;25.81;53.21
46448;BME280;32145;50.390;30.778;2022-08-19T09:39:51;99831.34;;;25.74;53.26
46448;BME280;32145;50.390;30.778;2022-08-19T09:42:35;99830.25;;;25.88;53.20
46448;BME280;32145;50.390;30.778;2022-08-19T09:45:21;99842.84;;;26.07;53.18
46448;BME280;32145;50.390;30.778;2022-08-19T09:48:05;99836.47;;;26.28;52.79
46448;BME280;32145;50.390;30.778;2022-08-19T09:50:49;99848.41;;;26.28;52.31
46448;BME280;32145;50.390;30.778;2022-08-19T09:53:33;99850.41;;;26.19;52.42
46448;BME280;32145;50.390;30.778;2022-08-19T09:56:19;99853.97;;;26.28;52.53
46448;BME280;32145;50.390;30.778;2022-08-19T09:59:04;99860.84;;;26.22;52.44
46448;BME280;32145;50.390;30.778;2022-08-19T10:01:48;99872.16;;;26.17;52.88
46448;BME280;32145;50.390;30.778;2022-08-19T10:04:32;99865.84;;;26.07;52.73
46448;BME280;32145;50.390;30.778;2022-08-19T10:07:16;99864.97;;;26.16;53.15
46448;BME280;32145;50.390;30.778;2022-08-19T10:10:00;99868.44;;;26.12;52.97
46448;BME280;32145;50.390;30.778;2022-08-19T10:12:46;99872.19;;;25.95;53.14
46448;BME280;32145;50.390;30.778;2022-08-19T10:15:30;99860.84;;;26.00;53.20
46448;BME280;32145;50.390;30.778;2022-08-19T10:18:14;99861.00;;;26.04;53.22
46448;BME280;32145;50.390;30.778;2022-08-19T10:21:05;99873.78;;;25.96;53.34
46448;BME280;32145;50.390;30.778;2022-08-19T10:23:53;99862.94;;;25.82;53.42
46448;BME280;32145;50.390;30.778;2022-08-19T10:26:40;99866.59;;;25.74;53.23
46448;BME280;32145;50.390;30.778;2022-08-19T10:29:26;99866.34;;;25.88;53.33
46448;BME280;32145;50.390;30.778;2022-08-19T10:32:10;99872.28;;;25.99;53.08
46448;BME280;32145;50.390;30.778;2022-08-19T10:34:54;99874.13;;;25.95;53.04
46448;BME280;32145;50.390;30.778;2022-08-19T10:37:39;99868.03;;;25.80;52.96
46448;BME280;32145;50.390;30.778;2022-08-19T10:40:23;99871.44;;;25.86;53.31
46448;BME280;32145;50.390;30.778;2022-08-19T10:43:07;99870.41;;;25.91;53.51
46448;BME280;32145;50.390;30.778;2022-08-19T10:45:54;99878.72;;;25.91;53.05
46448;BME280;32145;50.390;30.778;2022-08-19T10:48:38;99886.13;;;25.86;53.28
46448;BME280;32145;50.390;30.778;2022-08-19T10:51:22;99887.81;;;25.79;53.25
46448;BME280;32145;50.390;30.778;2022-08-19T10:54:06;99890.25;;;25.80;52.95
46448;BME280;32145;50.390;30.778;2022-08-19T10:56:50;99887.94;;;25.82;52.05
46448;BME280;32145;50.390;30.778;2022-08-19T10:59:34;99877.78;;;25.86;51.79
46448;BME280;32145;50.390;30.778;2022-08-19T11:02:19;99883.50;;;25.90;51.61
46448;BME280;32145;50.390;30.778;2022-08-19T11:05:05;99880.91;;;26.06;51.54
46448;BME280;32145;50.390;30.778;2022-08-19T11:07:49;99892.41;;;26.17;51.30
46448;BME280;32145;50.390;30.778;2022-08-19T11:10:32;99893.22;;;26.18;50.92
46448;BME280;32145;50.390;30.778;2022-08-19T11:13:16;99895.69;;;26.19;51.38
46448;BME280;32145;50.390;30.778;2022-08-19T11:16:03;99903.66;;;26.21;51.02
46448;BME280;32145;50.390;30.778;2022-08-19T11:18:52;99899.63;;;26.18;51.19
46448;BME280;32145;50.390;30.778;2022-08-19T11:21:39;99910.28;;;26.07;51.31
46448;BME280;32145;50.390;30.778;2022-08-19T11:24:25;99901.09;;;25.94;51.42
46448;BME280;32145;50.390;30.778;2022-08-19T11:27:10;99894.59;;;25.90;51.55
46448;BME280;32145;50.390;30.778;2022-08-19T11:29:54;99892.78;;;25.94;51.92
46448;BME280;32145;50.390;30.778;2022-08-19T11:32:38;99900.28;;;26.15;51.91
46448;BME280;32145;50.390;30.778;2022-08-19T11:35:24;99894.19;;;26.22;51.17
46448;BME280;32145;50.390;30.778;2022-08-19T11:38:08;99882.06;;;26.05;50.58
46448;BME280;32145;50.390;30.778;2022-08-19T11:40:56;99889.63;;;25.96;51.25
46448;BME280;32145;50.390;30.778;2022-08-19T11:43:40;99881.44;;;26.21;51.25
46448;BME280;32145;50.390;30.778;2022-08-19T11:46:26;99876.28;;;26.53;50.67
46448;BME280;32145;50.390;30.778;2022-08-19T11:49:10;99869.84;;;26.74;49.70
46448;BME280;32145;50.390;30.778;2022-08-19T11:51:56;99881.63;;;26.71;49.91
46448;BME280;32145;50.390;30.778;2022-08-19T11:54:40;99883.38;;;26.63;49.86
46448;BME280;32145;50.390;30.778;2022-08-19T11:57:24;99884.91;;;26.73;49.66
46448;BME280;32145;50.390;30.778;2022-08-19T12:00:09;99885.81;;;26.64;49.50
46448;BME280;32145;50.390;30.778;2022-08-19T12:02:53;99895.53;;;26.37;49.86
46448;BME280;32145;50.390;30.778;2022-08-19T12:05:38;99898.19;;;26.12;50.81
46448;BME280;32145;50.390;30.778;2022-08-19T12:08:24;99903.50;;;25.96;51.26
46448;BME280;32145;50.390;30.778;2022-08-19T12:11:08;99904.31;;;25.75;51.48
46448;BME280;32145;50.390;30.778;2022-08-19T12:13:53;99906.69;;;25.55;51.70
46448;BME280;32145;50.390;30.778;2022-08-19T12:16:37;99906.28;;;25.35;52.07
46448;BME280;32145;50.390;30.778;2022-08-19T12:19:21;99915.97;;;25.29;52.38
46448;BME280;32145;50.390;30.778;2022-08-19T12:22:06;99911.44;;;25.16;52.58
46448;BME280;32145;50.390;30.778;2022-08-19T12:24:51;99916.69;;;25.08;53.16
46448;BME280;32145;50.390;30.778;2022-08-19T12:27:35;99914.09;;;25.03;53.49
46448;BME280;32145;50.390;30.778;2022-08-19T12:30:19;99906.13;;;24.93;53.76
46448;BME280;32145;50.390;30.778;2022-08-19T12:33:03;99907.94;;;24.89;54.12
46448;BME280;32145;50.390;30.778;2022-08-19T12:35:47;99905.00;;;24.85;54.12
46448;BME280;32145;50.390;30.778;2022-08-19T12:38:32;99901.75;;;24.74;54.37
46448;BME280;32145;50.390;30.778;2022-08-19T12:41:18;99906.97;;;24.67;54.53
46448;BME280;32145;50.390;30.778;2022-08-19T12:44:03;99904.06;;;24.54;54.67
46448;BME280;32145;50.390;30.778;2022-08-19T12:46:48;99901.94;;;24.42;54.83
46448;BME280;32145;50.390;30.778;2022-08-19T12:49:33;99913.69;;;24.39;55.21
46448;BME280;32145;50.390;30.778;2022-08-19T12:52:17;99910.56;;;24.41;55.01
46448;BME280;32145;50.390;30.778;2022-08-19T12:55:01;99913.84;;;24.43;55.18
46448;BME280;32145;50.390;30.778;2022-08-19T12:57:46;99920.84;;;24.49;54.98
46448;BME280;32145;50.390;30.778;2022-08-19T13:00:30;99918.38;;;24.56;55.08
46448;BME280;32145;50.390;30.778;2022-08-19T13:03:15;99923.59;;;24.58;55.18
46448;BME280;32145;50.390;30.778;2022-08-19T13:05:59;99913.53;;;24.53;54.93
46448;BME280;32145;50.390;30.778;2022-08-19T13:08:43;99916.75;;;24.55;54.71
46448;BME280;32145;50.390;30.778;2022-08-19T13:11:27;99916.75;;;24.55;54.55
46448;BME280;32145;50.390;30.778;2022-08-19T13:14:12;99916.13;;;24.58;55.03
46448;BME280;32145;50.390;30.778;2022-08-19T13:16:57;99921.16;;;24.56;54.26
46448;BME280;32145;50.390;30.778;2022-08-19T13:19:41;99920.69;;;24.54;54.59
46448;BME280;32145;50.390;30.778;2022-08-19T13:22:25;99914.31;;;24.54;54.71
46448;BME280;32145;50.390;30.778;2022-08-19T13:25:11;99921.34;;;24.51;54.34
46448;BME280;32145;50.390;30.778;2022-08-19T13:27:55;99910.09;;;24.48;54.37
46448;BME280;32145;50.390;30.778;2022-08-19T13:30:41;99913.53;;;24.53;54.43
46448;BME280;32145;50.390;30.778;2022-08-19T13:33:25;99909.09;;;24.61;54.35
46448;BME280;32145;50.390;30.778;2022-08-19T13:36:10;99918.22;;;24.62;54.27
46448;BME280;32145;50.390;30.778;2022-08-19T13:38:54;99923.28;;;24.59;53.71
46448;BME280;32145;50.390;30.778;2022-08-19T13:41:43;99914.50;;;24.57;54.00
46448;BME280;32145;50.390;30.778;2022-08-19T13:44:28;99905.84;;;24.59;53.98
46448;BME280;32145;50.390;30.778;2022-08-19T13:47:13;99910.88;;;24.66;54.06
46448;BME280;32145;50.390;30.778;2022-08-19T13:49:57;99905.66;;;24.64;53.25
46448;BME280;32145;50.390;30.778;2022-08-19T13:52:42;99910.09;;;24.48;53.08
46448;BME280;32145;50.390;30.778;2022-08-19T13:55:26;99918.72;;;24.46;53.72
46448;BME280;32145;50.390;30.778;2022-08-19T13:58:12;99907.00;;;24.49;53.72
46448;BME280;32145;50.390;30.778;2022-08-19T14:00:56;99908.31;;;24.52;53.50
46448;BME280;32145;50.390;30.778;2022-08-19T14:03:41;99906.81;;;24.54;53.86
46448;BME280;32145;50.390;30.778;2022-08-19T14:06:25;99910.44;;;24.55;53.74
46448;BME280;32145;50.390;30.778;2022-08-19T14:09:10;99908.13;;;24.57;53.74
46448;BME280;32145;50.390;30.778;2022-08-19T14:11:54;99904.19;;;24.58;54.06
46448;BME280;32145;50.390;30.778;2022-08-19T14:14:38;99905.69;;;24.55;54.14
46448;BME280;32145;50.390;30.778;2022-08-19T14:17:22;99908.28;;;24.61;54.16
46448;BME280;32145;50.390;30.778;2022-08-19T14:20:10;99909.56;;;24.72;54.22
46448;BME280;32145;50.390;30.778;2022-08-19T14:22:55;99904.50;;;24.74;53.47